sensor_id;sensor_type;location;lat;lon;timestamp;pressure;altitude;pressure_sealevel;temperature;humidity
25944;BME280;13742;49.306;8.636;2023-05-14T00:00:00;100532.47;;;15.82;66.33
25944;BME280;13742;49.306;8.636;2023-05-14T00:01:00;100530.66;;;15.81;66.18
25944;BME280;13742;49.306;8.636;2023-05-14T00:02:00;100533.27;;;15.71;66.71
25944;BME280;13742;49.306;8.636;2023-05-14T00:03:00;100534.28;;;15.68;66.15
25944;BME280;13742;49.306;8.636;2023-05-14T00:04:00;100537.98;;;15.62;66.26
25944;BME280;13742;49.306;8.636;2023-05-14T00:05:00;100537.41;;;15.61;66.44
25944;BME280;13742;49.306;8.636;2023-05-14T00:06:00;100534.48;;;15.65;66.17
25944;BME280;13742;49.306;8.636;2023-05-14T00:07:00;100536.31;;;15.65;66.11
25944;BME280;13742;49.306;8.636;2023-05-14T00:08:00;100536.00;;;15.50;66.84
25944;BME280;13742;49.306;8.636;2023-05-14T00:09:00;100534.06;;;15.51;66.21
25944;BME280;13742;49.306;8.636;2023-05-14T00:10:00;100531.84;;;15.50;66.58
25944;BME280;13742;49.306;8.636;2023-05-14T00:11:00;100537.22;;;15.50;66.18
25944;BME280;13742;49.306;8.636;2023-05-14T00:12:00;100531.30;;;15.45;66.10
25944;BME280;13742;49.306;8.636;2023-05-14T00:13:00;100537.56;;;15.43;66.28
25944;BME280;13742;49.306;8.636;2023-05-14T00:14:00;100535.94;;;15.48;66.35
25944;BME280;13742;49.306;8.636;2023-05-14T00:15:00;100535.08;;;15.44;66.97
25944;BME280;13742;49.306;8.636;2023-05-14T00:16:00;100534.41;;;15.45;67.42
25944;BME280;13742;49.306;8.636;2023-05-14T00:17:00;100532.80;;;15.45;67.88
25944;BME280;13742;49.306;8.636;2023-05-14T00:18:00;100528.58;;;15.37;68.56
25944;BME280;13742;49.306;8.636;2023-05-14T00:19:00;100530.95;;;15.34;69.12
25944;BME280;13742;49.306;8.636;2023-05-14T00:20:00;100527.48;;;15.37;68.90
25944;BME280;13742;49.306;8.636;2023-05-14T00:21:00;100527.53;;;15.38;68.97
25944;BME280;13742;49.306;8.636;2023-05-14T00:22:00;100526.87;;;15.38;69.13
25944;BME280;13742;49.306;8.636;2023-05-14T00:23:00;100531.20;;;15.38;69.04
25944;BME280;13742;49.306;8.636;2023-05-14T00:24:00;100530.84;;;15.42;69.14
25944;BME280;13742;49.306;8.636;2023-05-14T00:25:00;100528.00;;;15.40;68.67
25944;BME280;13742;49.306;8.636;2023-05-14T00:26:00;100525.14;;;15.35;68.88
25944;BME280;13742;49.306;8.636;2023-05-14T00:27:00;100526.12;;;15.42;68.71
25944;BME280;13742;49.306;8.636;2023-05-14T00:28:00;100526.31;;;15.44;68.46
25944;BME280;13742;49.306;8.636;2023-05-14T00:29:00;100523.77;;;15.46;68.59
25944;BME280;13742;49.306;8.636;2023-05-14T00:30:00;100525.73;;;15.47;68.78
25944;BME280;13742;49.306;8.636;2023-05-14T00:31:00;100523.78;;;15.47;68.77
25944;BME280;13742;49.306;8.636;2023-05-14T00:32:00;100521.38;;;15.46;69.26
25944;BME280;13742;49.306;8.636;2023-05-14T00:33:00;100520.49;;;15.45;69.26
25944;BME280;13742;49.306;8.636;2023-05-14T00:34:00;100519.85;;;15.41;69.36
25944;BME280;13742;49.306;8.636;2023-05-14T00:35:02;100519.64;;;15.45;69.31
25944;BME280;13742;49.306;8.636;2023-05-14T00:36:00;100518.06;;;15.46;69.29
25944;BME280;13742;49.306;8.636;2023-05-14T00:37:00;100520.72;;;15.47;69.38
25944;BME280;13742;49.306;8.636;2023-05-14T00:38:00;100517.36;;;15.49;69.07
25944;BME280;13742;49.306;8.636;2023-05-14T00:39:00;100519.19;;;15.49;69.26
25944;BME280;13742;49.306;8.636;2023-05-14T00:40:00;100517.45;;;15.46;69.44
25944;BME280;13742;49.306;8.636;2023-05-14T00:41:00;100521.27;;;15.45;69.18
25944;BME280;13742;49.306;8.636;2023-05-14T00:42:00;100520.04;;;15.44;69.09
25944;BME280;13742;49.306;8.636;2023-05-14T00:43:00;100521.84;;;15.47;68.93
25944;BME280;13742;49.306;8.636;2023-05-14T00:44:00;100519.49;;;15.46;68.86
25944;BME280;13742;49.306;8.636;2023-05-14T00:45:00;100518.47;;;15.49;68.89
25944;BME280;13742;49.306;8.636;2023-05-14T00:46:00;100513.37;;;15.49;68.76
25944;BME280;13742;49.306;8.636;2023-05-14T00:47:00;100516.08;;;15.49;68.75
25944;BME280;13742;49.306;8.636;2023-05-14T00:48:00;100515.27;;;15.50;68.63
25944;BME280;13742;49.306;8.636;2023-05-14T00:49:00;100514.98;;;15.51;68.59
25944;BME280;13742;49.306;8.636;2023-05-14T00:50:00;100515.87;;;15.51;68.36
25944;BME280;13742;49.306;8.636;2023-05-14T00:51:00;100514.97;;;15.49;68.51
25944;BME280;13742;49.306;8.636;2023-05-14T00:52:00;100515.95;;;15.48;68.17
25944;BME280;13742;49.306;8.636;2023-05-14T00:53:00;100513.91;;;15.47;68.41
25944;BME280;13742;49.306;8.636;2023-05-14T00:54:00;100517.45;;;15.46;68.36
25944;BME280;13742;49.306;8.636;2023-05-14T00:55:01;100517.39;;;15.45;68.39
25944;BME280;13742;49.306;8.636;2023-05-14T00:56:00;100517.98;;;15.45;68.49
25944;BME280;13742;49.306;8.636;2023-05-14T00:57:00;100517.99;;;15.45;68.29
25944;BME280;13742;49.306;8.636;2023-05-14T00:58:00;100513.94;;;15.45;68.31
25944;BME280;13742;49.306;8.636;2023-05-14T00:59:00;100514.63;;;15.46;68.35
25944;BME280;13742;49.306;8.636;2023-05-14T01:00:00;100517.34;;;15.47;68.66
25944;BME280;13742;49.306;8.636;2023-05-14T01:01:00;100511.81;;;15.48;68.53
25944;BME280;13742;49.306;8.636;2023-05-14T01:02:00;100513.70;;;15.49;68.72
25944;BME280;13742;49.306;8.636;2023-05-14T01:03:02;100513.42;;;15.50;69.02
25944;BME280;13742;49.306;8.636;2023-05-14T01:04:00;100506.50;;;15.51;68.81
25944;BME280;13742;49.306;8.636;2023-05-14T01:05:00;100507.61;;;15.52;68.73
25944;BME280;13742;49.306;8.636;2023-05-14T01:06:23;100508.66;;;15.52;68.15
25944;BME280;13742;49.306;8.636;2023-05-14T01:09:02;100507.84;;;15.52;67.61
25944;BME280;13742;49.306;8.636;2023-05-14T01:10:11;100509.21;;;15.52;67.52
25944;BME280;13742;49.306;8.636;2023-05-14T01:13:23;100510.05;;;15.53;67.49
25944;BME280;13742;49.306;8.636;2023-05-14T01:16:00;100511.51;;;15.46;67.50
25944;BME280;13742;49.306;8.636;2023-05-14T01:17:01;100512.75;;;15.47;67.64
25944;BME280;13742;49.306;8.636;2023-05-14T01:18:03;100509.73;;;15.47;67.49
25944;BME280;13742;49.306;8.636;2023-05-14T01:19:00;100512.63;;;15.48;67.53
25944;BME280;13742;49.306;8.636;2023-05-14T01:20:00;100508.30;;;15.48;67.52
25944;BME280;13742;49.306;8.636;2023-05-14T01:21:00;100508.51;;;15.44;67.59
25944;BME280;13742;49.306;8.636;2023-05-14T01:22:00;100504.24;;;15.45;67.50
25944;BME280;13742;49.306;8.636;2023-05-14T01:23:00;100503.05;;;15.22;67.93
25944;BME280;13742;49.306;8.636;2023-05-14T01:24:00;100502.13;;;15.24;68.28
25944;BME280;13742;49.306;8.636;2023-05-14T01:25:00;100506.77;;;15.27;68.15
25944;BME280;13742;49.306;8.636;2023-05-14T01:26:00;100506.02;;;15.29;68.29
25944;BME280;13742;49.306;8.636;2023-05-14T01:27:01;100502.76;;;15.30;68.41
25944;BME280;13742;49.306;8.636;2023-05-14T01:29:01;100498.83;;;15.14;68.77
25944;BME280;13742;49.306;8.636;2023-05-14T01:32:00;100505.05;;;15.15;68.60
25944;BME280;13742;49.306;8.636;2023-05-14T01:33:05;100501.95;;;15.08;68.49
25944;BME280;13742;49.306;8.636;2023-05-14T01:34:00;100500.05;;;15.07;68.43
25944;BME280;13742;49.306;8.636;2023-05-14T01:35:00;100500.05;;;15.07;68.60
25944;BME280;13742;49.306;8.636;2023-05-14T01:36:00;100495.98;;;15.07;68.54
25944;BME280;13742;49.306;8.636;2023-05-14T01:37:00;100494.96;;;15.08;68.44
25944;BME280;13742;49.306;8.636;2023-05-14T01:38:01;100491.87;;;15.09;68.16
25944;BME280;13742;49.306;8.636;2023-05-14T01:39:00;100491.87;;;15.09;68.33
25944;BME280;13742;49.306;8.636;2023-05-14T01:40:00;100493.20;;;15.10;68.24
25944;BME280;13742;49.306;8.636;2023-05-14T01:41:00;100492.08;;;15.10;67.90
25944;BME280;13742;49.306;8.636;2023-05-14T01:42:00;100490.80;;;15.09;67.96
25944;BME280;13742;49.306;8.636;2023-05-14T01:43:00;100492.58;;;15.10;68.00
25944;BME280;13742;49.306;8.636;2023-05-14T01:44:00;100487.98;;;15.09;68.02
25944;BME280;13742;49.306;8.636;2023-05-14T01:45:00;100488.75;;;15.10;67.87
25944;BME280;13742;49.306;8.636;2023-05-14T01:46:00;100485.59;;;15.10;67.91
25944;BME280;13742;49.306;8.636;2023-05-14T01:47:00;100485.11;;;15.10;68.02
25944;BME280;13742;49.306;8.636;2023-05-14T01:48:00;100481.39;;;15.09;68.02
25944;BME280;13742;49.306;8.636;2023-05-14T01:49:00;100485.76;;;15.10;67.86
25944;BME280;13742;49.306;8.636;2023-05-14T01:50:00;100481.34;;;15.04;67.38
25944;BME280;13742;49.306;8.636;2023-05-14T01:51:01;100482.54;;;15.03;67.56
25944;BME280;13742;49.306;8.636;2023-05-14T01:52:00;100482.56;;;15.04;67.32
25944;BME280;13742;49.306;8.636;2023-05-14T01:53:00;100482.03;;;14.88;67.49
25944;BME280;13742;49.306;8.636;2023-05-14T01:54:00;100484.95;;;14.90;67.36
25944;BME280;13742;49.306;8.636;2023-05-14T01:55:00;100483.76;;;14.88;67.48
25944;BME280;13742;49.306;8.636;2023-05-14T01:56:00;100485.08;;;14.88;67.44
25944;BME280;13742;49.306;8.636;2023-05-14T01:57:00;100488.27;;;14.79;67.79
25944;BME280;13742;49.306;8.636;2023-05-14T01:58:00;100489.42;;;14.76;67.82
25944;BME280;13742;49.306;8.636;2023-05-14T01:59:00;100486.14;;;14.76;67.67
25944;BME280;13742;49.306;8.636;2023-05-14T02:00:00;100486.53;;;14.64;68.14
25944;BME280;13742;49.306;8.636;2023-05-14T02:01:00;100485.72;;;14.70;67.85
25944;BME280;13742;49.306;8.636;2023-05-14T02:02:00;100487.80;;;14.70;67.92
25944;BME280;13742;49.306;8.636;2023-05-14T02:03:00;100489.31;;;14.72;67.90
25944;BME280;13742;49.306;8.636;2023-05-14T02:04:00;100489.67;;;14.63;68.13
25944;BME280;13742;49.306;8.636;2023-05-14T02:05:00;100486.94;;;14.67;67.99
25944;BME280;13742;49.306;8.636;2023-05-14T02:06:00;100488.78;;;14.68;68.03
25944;BME280;13742;49.306;8.636;2023-05-14T02:07:00;100488.73;;;14.68;68.21
25944;BME280;13742;49.306;8.636;2023-05-14T02:08:00;100488.45;;;14.61;68.35
25944;BME280;13742;49.306;8.636;2023-05-14T02:09:01;100486.17;;;14.61;68.56
25944;BME280;13742;49.306;8.636;2023-05-14T02:10:00;100489.43;;;14.54;68.50
25944;BME280;13742;49.306;8.636;2023-05-14T02:11:00;100488.98;;;14.55;68.46
25944;BME280;13742;49.306;8.636;2023-05-14T02:12:00;100492.34;;;14.57;68.50
25944;BME280;13742;49.306;8.636;2023-05-14T02:13:00;100489.77;;;14.57;68.78
25944;BME280;13742;49.306;8.636;2023-05-14T02:14:00;100489.89;;;14.55;68.47
25944;BME280;13742;49.306;8.636;2023-05-14T02:15:00;100491.52;;;14.52;68.78
25944;BME280;13742;49.306;8.636;2023-05-14T02:16:00;100491.61;;;14.41;69.02
25944;BME280;13742;49.306;8.636;2023-05-14T02:17:00;100491.58;;;14.37;69.37
25944;BME280;13742;49.306;8.636;2023-05-14T02:18:00;100491.91;;;14.43;69.16
25944;BME280;13742;49.306;8.636;2023-05-14T02:19:00;100492.20;;;14.44;69.04
25944;BME280;13742;49.306;8.636;2023-05-14T02:20:00;100494.83;;;14.47;69.27
25944;BME280;13742;49.306;8.636;2023-05-14T02:21:00;100495.30;;;14.49;69.31
25944;BME280;13742;49.306;8.636;2023-05-14T02:22:00;100493.41;;;14.49;69.32
25944;BME280;13742;49.306;8.636;2023-05-14T02:23:00;100494.20;;;14.50;69.29
25944;BME280;13742;49.306;8.636;2023-05-14T02:24:00;100498.05;;;14.51;69.39
25944;BME280;13742;49.306;8.636;2023-05-14T02:25:00;100495.49;;;14.52;69.03
25944;BME280;13742;49.306;8.636;2023-05-14T02:26:00;100493.69;;;14.53;68.88
25944;BME280;13742;49.306;8.636;2023-05-14T02:27:00;100495.14;;;14.54;68.83
25944;BME280;13742;49.306;8.636;2023-05-14T02:28:00;100494.06;;;14.54;68.94
25944;BME280;13742;49.306;8.636;2023-05-14T02:29:00;100492.48;;;14.55;69.26
25944;BME280;13742;49.306;8.636;2023-05-14T02:30:00;100493.58;;;14.53;69.33
25944;BME280;13742;49.306;8.636;2023-05-14T02:31:00;100489.15;;;14.55;69.17
25944;BME280;13742;49.306;8.636;2023-05-14T02:32:00;100488.31;;;14.54;69.26
25944;BME280;13742;49.306;8.636;2023-05-14T02:33:00;100486.80;;;14.51;69.28
25944;BME280;13742;49.306;8.636;2023-05-14T02:34:00;100482.27;;;14.53;69.23
25944;BME280;13742;49.306;8.636;2023-05-14T02:35:00;100484.44;;;14.53;69.33
25944;BME280;13742;49.306;8.636;2023-05-14T02:36:00;100490.06;;;14.47;69.31
25944;BME280;13742;49.306;8.636;2023-05-14T02:37:00;100491.19;;;14.48;69.08
25944;BME280;13742;49.306;8.636;2023-05-14T02:38:00;100486.22;;;14.50;69.02
25944;BME280;13742;49.306;8.636;2023-05-14T02:39:00;100483.63;;;14.49;69.01
25944;BME280;13742;49.306;8.636;2023-05-14T02:40:00;100488.33;;;14.50;68.93
25944;BME280;13742;49.306;8.636;2023-05-14T02:41:00;100489.50;;;14.50;69.14
25944;BME280;13742;49.306;8.636;2023-05-14T02:42:00;100490.08;;;14.48;69.06
25944;BME280;13742;49.306;8.636;2023-05-14T02:43:00;100490.63;;;14.47;69.09
25944;BME280;13742;49.306;8.636;2023-05-14T02:44:00;100489.41;;;14.47;68.97
25944;BME280;13742;49.306;8.636;2023-05-14T02:45:00;100487.65;;;14.47;68.90
25944;BME280;13742;49.306;8.636;2023-05-14T02:46:00;100489.03;;;14.49;69.30
25944;BME280;13742;49.306;8.636;2023-05-14T02:47:00;100483.05;;;14.49;69.40
25944;BME280;13742;49.306;8.636;2023-05-14T02:48:00;100483.73;;;14.50;69.37
25944;BME280;13742;49.306;8.636;2023-05-14T02:49:00;100483.13;;;14.49;69.09
25944;BME280;13742;49.306;8.636;2023-05-14T02:50:00;100484.13;;;14.49;70.02
25944;BME280;13742;49.306;8.636;2023-05-14T02:51:00;100480.41;;;14.50;69.47
25944;BME280;13742;49.306;8.636;2023-05-14T02:52:00;100483.34;;;14.49;69.59
25944;BME280;13742;49.306;8.636;2023-05-14T02:53:00;100481.98;;;14.47;69.32
25944;BME280;13742;49.306;8.636;2023-05-14T02:54:00;100479.59;;;14.45;70.13
25944;BME280;13742;49.306;8.636;2023-05-14T02:55:00;100479.50;;;14.42;70.16
25944;BME280;13742;49.306;8.636;2023-05-14T02:56:00;100482.52;;;14.39;70.52
25944;BME280;13742;49.306;8.636;2023-05-14T02:57:00;100483.08;;;14.40;69.87
25944;BME280;13742;49.306;8.636;2023-05-14T02:58:00;100485.29;;;14.40;69.76
25944;BME280;13742;49.306;8.636;2023-05-14T02:59:00;100484.14;;;14.41;69.95
25944;BME280;13742;49.306;8.636;2023-05-14T03:00:00;100484.64;;;14.41;69.90
25944;BME280;13742;49.306;8.636;2023-05-14T03:01:00;100489.63;;;14.41;69.87
25944;BME280;13742;49.306;8.636;2023-05-14T03:02:00;100485.58;;;14.41;70.84
25944;BME280;13742;49.306;8.636;2023-05-14T03:03:00;100486.91;;;14.40;70.32
25944;BME280;13742;49.306;8.636;2023-05-14T03:04:00;100485.78;;;14.39;70.41
25944;BME280;13742;49.306;8.636;2023-05-14T03:05:00;100486.98;;;14.37;70.12
25944;BME280;13742;49.306;8.636;2023-05-14T03:06:00;100488.06;;;14.35;70.00
25944;BME280;13742;49.306;8.636;2023-05-14T03:07:00;100489.12;;;14.35;70.49
25944;BME280;13742;49.306;8.636;2023-05-14T03:08:00;100486.23;;;14.34;70.19
25944;BME280;13742;49.306;8.636;2023-05-14T03:09:00;100492.00;;;14.35;70.18
25944;BME280;13742;49.306;8.636;2023-05-14T03:10:00;100483.84;;;14.34;70.16
25944;BME280;13742;49.306;8.636;2023-05-14T03:11:00;100488.80;;;14.36;70.22
25944;BME280;13742;49.306;8.636;2023-05-14T03:12:00;100487.38;;;14.34;70.19
25944;BME280;13742;49.306;8.636;2023-05-14T03:13:00;100486.71;;;14.34;70.33
25944;BME280;13742;49.306;8.636;2023-05-14T03:14:00;100489.22;;;14.29;69.61
25944;BME280;13742;49.306;8.636;2023-05-14T03:15:00;100489.27;;;14.28;69.59
25944;BME280;13742;49.306;8.636;2023-05-14T03:16:00;100487.80;;;14.25;69.57
25944;BME280;13742;49.306;8.636;2023-05-14T03:17:00;100486.80;;;14.20;69.80
25944;BME280;13742;49.306;8.636;2023-05-14T03:18:00;100483.75;;;14.16;69.99
25944;BME280;13742;49.306;8.636;2023-05-14T03:19:00;100483.69;;;14.19;69.72
25944;BME280;13742;49.306;8.636;2023-05-14T03:20:00;100483.80;;;14.20;69.82
25944;BME280;13742;49.306;8.636;2023-05-14T03:21:00;100482.09;;;14.20;69.63
25944;BME280;13742;49.306;8.636;2023-05-14T03:22:00;100481.72;;;14.21;69.76
25944;BME280;13742;49.306;8.636;2023-05-14T03:23:00;100478.38;;;14.21;69.69
25944;BME280;13742;49.306;8.636;2023-05-14T03:24:00;100485.31;;;14.21;69.57
25944;BME280;13742;49.306;8.636;2023-05-14T03:25:00;100478.80;;;14.22;69.59
25944;BME280;13742;49.306;8.636;2023-05-14T03:26:00;100481.07;;;14.24;70.06
25944;BME280;13742;49.306;8.636;2023-05-14T03:27:00;100482.88;;;14.21;70.30
25944;BME280;13742;49.306;8.636;2023-05-14T03:28:00;100484.00;;;14.23;69.89
25944;BME280;13742;49.306;8.636;2023-05-14T03:29:00;100481.73;;;14.22;70.46
25944;BME280;13742;49.306;8.636;2023-05-14T03:30:00;100483.51;;;14.14;70.91
25944;BME280;13742;49.306;8.636;2023-05-14T03:31:00;100480.78;;;14.18;70.39
25944;BME280;13742;49.306;8.636;2023-05-14T03:32:00;100483.38;;;14.17;70.35
25944;BME280;13742;49.306;8.636;2023-05-14T03:33:00;100483.52;;;14.19;71.04
25944;BME280;13742;49.306;8.636;2023-05-14T03:34:00;100483.02;;;14.19;70.79
25944;BME280;13742;49.306;8.636;2023-05-14T03:35:00;100486.34;;;14.19;70.35
25944;BME280;13742;49.306;8.636;2023-05-14T03:36:00;100490.12;;;14.21;71.15
25944;BME280;13742;49.306;8.636;2023-05-14T03:37:00;100491.67;;;14.21;70.97
25944;BME280;13742;49.306;8.636;2023-05-14T03:38:00;100489.97;;;14.21;70.73
25944;BME280;13742;49.306;8.636;2023-05-14T03:39:00;100490.47;;;14.23;70.95
25944;BME280;13742;49.306;8.636;2023-05-14T03:40:00;100487.77;;;14.23;70.97
25944;BME280;13742;49.306;8.636;2023-05-14T03:41:00;100488.55;;;14.24;70.90
25944;BME280;13742;49.306;8.636;2023-05-14T03:42:00;100488.05;;;14.24;70.60
25944;BME280;13742;49.306;8.636;2023-05-14T03:43:00;100487.83;;;14.23;70.87
25944;BME280;13742;49.306;8.636;2023-05-14T03:44:00;100486.69;;;14.22;70.80
25944;BME280;13742;49.306;8.636;2023-05-14T03:45:00;100485.48;;;14.21;71.20
25944;BME280;13742;49.306;8.636;2023-05-14T03:46:00;100486.22;;;14.22;70.79
25944;BME280;13742;49.306;8.636;2023-05-14T03:47:00;100489.48;;;14.23;70.83
25944;BME280;13742;49.306;8.636;2023-05-14T03:48:00;100489.92;;;14.22;70.69
25944;BME280;13742;49.306;8.636;2023-05-14T03:49:00;100488.97;;;14.21;70.76
25944;BME280;13742;49.306;8.636;2023-05-14T03:50:00;100485.91;;;14.20;70.81
25944;BME280;13742;49.306;8.636;2023-05-14T03:51:00;100483.64;;;14.21;70.64
25944;BME280;13742;49.306;8.636;2023-05-14T03:52:00;100489.09;;;14.22;71.13
25944;BME280;13742;49.306;8.636;2023-05-14T03:53:00;100489.02;;;14.22;71.40
25944;BME280;13742;49.306;8.636;2023-05-14T03:54:00;100488.84;;;14.21;71.23
25944;BME280;13742;49.306;8.636;2023-05-14T03:55:00;100489.84;;;14.21;71.43
25944;BME280;13742;49.306;8.636;2023-05-14T03:56:00;100488.39;;;14.20;71.54
25944;BME280;13742;49.306;8.636;2023-05-14T03:57:00;100486.52;;;14.19;71.32
25944;BME280;13742;49.306;8.636;2023-05-14T03:58:01;100483.45;;;14.18;71.26
25944;BME280;13742;49.306;8.636;2023-05-14T03:59:00;100485.17;;;14.18;71.55
25944;BME280;13742;49.306;8.636;2023-05-14T04:00:00;100485.72;;;14.17;71.70
25944;BME280;13742;49.306;8.636;2023-05-14T04:01:00;100484.84;;;14.18;71.98
25944;BME280;13742;49.306;8.636;2023-05-14T04:02:00;100483.66;;;14.18;72.53
25944;BME280;13742;49.306;8.636;2023-05-14T04:03:05;100484.47;;;14.08;73.40
25944;BME280;13742;49.306;8.636;2023-05-14T04:04:00;100481.80;;;14.07;73.28
25944;BME280;13742;49.306;8.636;2023-05-14T04:05:00;100480.19;;;14.07;72.65
25944;BME280;13742;49.306;8.636;2023-05-14T04:06:00;100483.24;;;14.08;72.42
25944;BME280;13742;49.306;8.636;2023-05-14T04:07:00;100482.80;;;14.08;73.01
25944;BME280;13742;49.306;8.636;2023-05-14T04:08:00;100481.55;;;14.09;73.55
25944;BME280;13742;49.306;8.636;2023-05-14T04:09:00;100479.33;;;14.09;73.64
25944;BME280;13742;49.306;8.636;2023-05-14T04:10:01;100480.04;;;14.09;73.33
25944;BME280;13742;49.306;8.636;2023-05-14T04:11:00;100479.70;;;14.08;73.13
25944;BME280;13742;49.306;8.636;2023-05-14T04:12:00;100477.80;;;14.02;73.54
25944;BME280;13742;49.306;8.636;2023-05-14T04:13:00;100479.69;;;14.02;73.00
25944;BME280;13742;49.306;8.636;2023-05-14T04:14:00;100481.97;;;14.03;72.89
25944;BME280;13742;49.306;8.636;2023-05-14T04:15:00;100479.14;;;14.03;72.66
25944;BME280;13742;49.306;8.636;2023-05-14T04:16:00;100477.01;;;14.05;73.61
25944;BME280;13742;49.306;8.636;2023-05-14T04:17:00;100479.88;;;14.04;74.46
25944;BME280;13742;49.306;8.636;2023-05-14T04:18:00;100483.16;;;14.06;73.54
25944;BME280;13742;49.306;8.636;2023-05-14T04:19:00;100482.08;;;14.07;73.29
25944;BME280;13742;49.306;8.636;2023-05-14T04:20:00;100481.35;;;14.07;73.42
25944;BME280;13742;49.306;8.636;2023-05-14T04:21:00;100485.05;;;14.07;73.14
25944;BME280;13742;49.306;8.636;2023-05-14T04:22:00;100483.33;;;14.06;73.77
25944;BME280;13742;49.306;8.636;2023-05-14T04:23:00;100483.59;;;14.05;73.66
25944;BME280;13742;49.306;8.636;2023-05-14T04:24:00;100482.36;;;14.04;73.09
25944;BME280;13742;49.306;8.636;2023-05-14T04:25:00;100479.22;;;14.05;73.08
25944;BME280;13742;49.306;8.636;2023-05-14T04:26:00;100484.83;;;14.06;73.18
25944;BME280;13742;49.306;8.636;2023-05-14T04:27:00;100483.94;;;14.06;73.11
25944;BME280;13742;49.306;8.636;2023-05-14T04:28:00;100486.44;;;14.07;73.64
25944;BME280;13742;49.306;8.636;2023-05-14T04:29:01;100487.62;;;14.08;73.53
25944;BME280;13742;49.306;8.636;2023-05-14T04:30:00;100487.92;;;14.10;73.03
25944;BME280;13742;49.306;8.636;2023-05-14T04:31:00;100484.03;;;14.09;73.12
25944;BME280;13742;49.306;8.636;2023-05-14T04:32:00;100485.03;;;14.09;73.14
25944;BME280;13742;49.306;8.636;2023-05-14T04:33:00;100483.58;;;14.08;73.61
25944;BME280;13742;49.306;8.636;2023-05-14T04:34:00;100487.60;;;14.02;73.72
25944;BME280;13742;49.306;8.636;2023-05-14T04:35:00;100484.78;;;14.03;73.31
25944;BME280;13742;49.306;8.636;2023-05-14T04:36:00;100485.55;;;14.06;73.79
25944;BME280;13742;49.306;8.636;2023-05-14T04:37:00;100485.38;;;14.06;73.72
25944;BME280;13742;49.306;8.636;2023-05-14T04:38:00;100483.55;;;14.06;74.07
25944;BME280;13742;49.306;8.636;2023-05-14T04:39:00;100488.77;;;14.07;74.02
25944;BME280;13742;49.306;8.636;2023-05-14T04:40:00;100488.77;;;14.08;73.60
25944;BME280;13742;49.306;8.636;2023-05-14T04:41:00;100489.63;;;14.09;74.23
25944;BME280;13742;49.306;8.636;2023-05-14T04:42:00;100489.28;;;14.09;74.07
25944;BME280;13742;49.306;8.636;2023-05-14T04:43:00;100488.95;;;14.09;73.77
25944;BME280;13742;49.306;8.636;2023-05-14T04:44:02;100487.75;;;14.10;74.25
25944;BME280;13742;49.306;8.636;2023-05-14T04:45:00;100492.66;;;14.04;75.05
25944;BME280;13742;49.306;8.636;2023-05-14T04:46:00;100490.03;;;14.06;75.07
25944;BME280;13742;49.306;8.636;2023-05-14T04:47:00;100493.44;;;14.04;75.57
25944;BME280;13742;49.306;8.636;2023-05-14T04:48:00;100489.44;;;14.00;75.83
25944;BME280;13742;49.306;8.636;2023-05-14T04:49:00;100493.48;;;13.99;75.65
25944;BME280;13742;49.306;8.636;2023-05-14T04:50:00;100491.24;;;13.96;75.44
25944;BME280;13742;49.306;8.636;2023-05-14T04:51:00;100492.33;;;13.92;76.10
25944;BME280;13742;49.306;8.636;2023-05-14T04:52:00;100492.00;;;13.91;76.23
25944;BME280;13742;49.306;8.636;2023-05-14T04:53:00;100495.75;;;13.95;75.76
25944;BME280;13742;49.306;8.636;2023-05-14T04:54:00;100497.14;;;13.96;75.23
25944;BME280;13742;49.306;8.636;2023-05-14T04:55:00;100496.72;;;13.96;75.29
25944;BME280;13742;49.306;8.636;2023-05-14T04:56:00;100499.80;;;13.96;75.09
25944;BME280;13742;49.306;8.636;2023-05-14T04:57:02;100499.23;;;13.94;75.64
25944;BME280;13742;49.306;8.636;2023-05-14T04:58:00;100501.23;;;13.94;75.35
25944;BME280;13742;49.306;8.636;2023-05-14T04:59:00;100499.22;;;13.92;76.20
25944;BME280;13742;49.306;8.636;2023-05-14T05:00:00;100501.55;;;13.94;75.60
25944;BME280;13742;49.306;8.636;2023-05-14T05:01:01;100501.92;;;13.97;76.16
25944;BME280;13742;49.306;8.636;2023-05-14T05:02:00;100495.91;;;13.94;75.32
25944;BME280;13742;49.306;8.636;2023-05-14T05:03:00;100503.63;;;13.96;75.03
25944;BME280;13742;49.306;8.636;2023-05-14T05:04:00;100503.16;;;13.98;74.82
25944;BME280;13742;49.306;8.636;2023-05-14T05:05:00;100504.09;;;13.98;73.27
25944;BME280;13742;49.306;8.636;2023-05-14T05:06:00;100500.97;;;14.00;73.54
25944;BME280;13742;49.306;8.636;2023-05-14T05:07:00;100498.97;;;13.99;73.30
25944;BME280;13742;49.306;8.636;2023-05-14T05:08:00;100498.13;;;13.85;72.47
25944;BME280;13742;49.306;8.636;2023-05-14T05:09:00;100498.86;;;13.91;72.63
25944;BME280;13742;49.306;8.636;2023-05-14T05:10:00;100495.73;;;13.92;72.17
25944;BME280;13742;49.306;8.636;2023-05-14T05:11:00;100495.83;;;13.95;72.21
25944;BME280;13742;49.306;8.636;2023-05-14T05:12:00;100495.33;;;13.95;71.96
25944;BME280;13742;49.306;8.636;2023-05-14T05:13:00;100492.85;;;13.98;72.18
25944;BME280;13742;49.306;8.636;2023-05-14T05:14:00;100495.45;;;14.01;72.39
25944;BME280;13742;49.306;8.636;2023-05-14T05:15:00;100494.00;;;14.04;72.37
25944;BME280;13742;49.306;8.636;2023-05-14T05:16:00;100496.94;;;14.06;72.15
25944;BME280;13742;49.306;8.636;2023-05-14T05:17:00;100493.98;;;14.08;72.18
25944;BME280;13742;49.306;8.636;2023-05-14T05:18:00;100495.48;;;14.09;72.08
25944;BME280;13742;49.306;8.636;2023-05-14T05:19:00;100494.94;;;14.10;72.06
25944;BME280;13742;49.306;8.636;2023-05-14T05:20:00;100496.16;;;14.09;71.92
25944;BME280;13742;49.306;8.636;2023-05-14T05:21:00;100493.86;;;14.12;71.98
25944;BME280;13742;49.306;8.636;2023-05-14T05:22:00;100494.59;;;14.09;71.38